sensor_id;sensor_type;location;lat;lon;timestamp;P1;durP1;ratioP1;P2;durP2;ratioP2
3726;SDS011;1879;45.876;12.300;2022-11-15T00:02:16;13.97;;;12.50;;
3726;SDS011;1879;45.876;12.300;2022-11-15T00:04:43;13.70;;;12.40;;
3726;SDS011;1879;45.876;12.300;2022-11-15T00:07:11;14.13;;;12.60;;
3726;SDS011;1879;45.876;12.300;2022-11-15T00:09:39;14.47;;;12.67;;
3726;SDS011;1879;45.876;12.300;2022-11-15T00:12:06;14.97;;;13.37;;
3726;SDS011;1879;45.876;12.300;2022-11-15T00:14:33;13.30;;;12.00;;
3726;SDS011;1879;45.876;12.300;2022-11-15T00:17:00;13.67;;;12.30;;
3726;SDS011;1879;45.876;12.300;2022-11-15T00:19:28;13.03;;;11.70;;
3726;SDS011;1879;45.876;12.300;2022-11-15T00:21:55;13.53;;;12.33;;
3726;SDS011;1879;45.876;12.300;2022-11-15T00:24:23;13.57;;;12.17;;
3726;SDS011;1879;45.876;12.300;2022-11-15T00:26:51;14.27;;;12.77;;
3726;SDS011;1879;45.876;12.300;2022-11-15T00:29:18;14.70;;;13.30;;
3726;SDS011;1879;45.876;12.300;2022-11-15T00:31:45;12.70;;;11.50;;
3726;SDS011;1879;45.876;12.300;2022-11-15T00:34:12;13.87;;;12.47;;
3726;SDS011;1879;45.876;12.300;2022-11-15T00:36:40;15.27;;;13.07;;
3726;SDS011;1879;45.876;12.300;2022-11-15T00:39:07;17.80;;;12.23;;
3726;SDS011;1879;45.876;12.300;2022-11-15T00:41:36;13.70;;;12.40;;
3726;SDS011;1879;45.876;12.300;2022-11-15T00:44:03;14.47;;;12.97;;
3726;SDS011;1879;45.876;12.300;2022-11-15T00:46:30;12.57;;;11.37;;
3726;SDS011;1879;45.876;12.300;2022-11-15T00:48:57;11.60;;;10.40;;
3726;SDS011;1879;45.876;12.300;2022-11-15T00:51:25;11.80;;;10.70;;
3726;SDS011;1879;45.876;12.300;2022-11-15T00:53:52;10.70;;;9.70;;
3726;SDS011;1879;45.876;12.300;2022-11-15T00:56:19;10.70;;;9.63;;
3726;SDS011;1879;45.876;12.300;2022-11-15T00:58:48;9.90;;;8.97;;
3726;SDS011;1879;45.876;12.300;2022-11-15T01:01:15;9.87;;;8.97;;
3726;SDS011;1879;45.876;12.300;2022-11-15T01:03:42;10.17;;;9.17;;
3726;SDS011;1879;45.876;12.300;2022-11-15T01:06:09;9.43;;;8.43;;
3726;SDS011;1879;45.876;12.300;2022-11-15T01:08:37;10.57;;;9.57;;
3726;SDS011;1879;45.876;12.300;2022-11-15T01:11:05;10.77;;;9.67;;
3726;SDS011;1879;45.876;12.300;2022-11-15T01:13:33;10.50;;;9.40;;
3726;SDS011;1879;45.876;12.300;2022-11-15T01:16:06;9.67;;;8.77;;
3726;SDS011;1879;45.876;12.300;2022-11-15T01:18:34;10.90;;;9.80;;
3726;SDS011;1879;45.876;12.300;2022-11-15T01:21:04;12.27;;;10.97;;
3726;SDS011;1879;45.876;12.300;2022-11-15T01:23:31;10.07;;;9.07;;
3726;SDS011;1879;45.876;12.300;2022-11-15T01:25:59;11.37;;;10.17;;
3726;SDS011;1879;45.876;12.300;2022-11-15T01:28:29;12.40;;;11.20;;
3726;SDS011;1879;45.876;12.300;2022-11-15T01:30:57;11.37;;;10.27;;
3726;SDS011;1879;45.876;12.300;2022-11-15T01:33:26;11.90;;;10.20;;
3726;SDS011;1879;45.876;12.300;2022-11-15T01:35:54;11.23;;;10.00;;
3726;SDS011;1879;45.876;12.300;2022-11-15T01:38:21;13.57;;;10.67;;
3726;SDS011;1879;45.876;12.300;2022-11-15T01:40:49;13.80;;;10.23;;
3726;SDS011;1879;45.876;12.300;2022-11-15T01:43:20;12.40;;;11.20;;
3726;SDS011;1879;45.876;12.300;2022-11-15T01:45:48;13.23;;;11.90;;
3726;SDS011;1879;45.876;12.300;2022-11-15T01:48:16;13.40;;;10.80;;
3726;SDS011;1879;45.876;12.300;2022-11-15T01:50:45;11.27;;;10.17;;
3726;SDS011;1879;45.876;12.300;2022-11-15T01:53:12;12.20;;;11.03;;
3726;SDS011;1879;45.876;12.300;2022-11-15T01:55:39;11.80;;;10.63;;
3726;SDS011;1879;45.876;12.300;2022-11-15T01:58:07;11.57;;;10.57;;
3726;SDS011;1879;45.876;12.300;2022-11-15T02:00:34;11.87;;;10.67;;
3726;SDS011;1879;45.876;12.300;2022-11-15T02:03:02;12.30;;;11.00;;
3726;SDS011;1879;45.876;12.300;2022-11-15T02:05:30;13.03;;;11.43;;
3726;SDS011;1879;45.876;12.300;2022-11-15T02:07:59;13.23;;;11.33;;
3726;SDS011;1879;45.876;12.300;2022-11-15T02:10:27;11.87;;;10.70;;
3726;SDS011;1879;45.876;12.300;2022-11-15T02:12:54;13.20;;;11.80;;
3726;SDS011;1879;45.876;12.300;2022-11-15T02:15:23;12.40;;;10.30;;
3726;SDS011;1879;45.876;12.300;2022-11-15T02:17:54;11.60;;;10.40;;
3726;SDS011;1879;45.876;12.300;2022-11-15T02:20:31;12.00;;;10.67;;
3726;SDS011;1879;45.876;12.300;2022-11-15T02:23:08;12.90;;;11.43;;
3726;SDS011;1879;45.876;12.300;2022-11-15T02:25:41;12.80;;;10.93;;
3726;SDS011;1879;45.876;12.300;2022-11-15T02:28:16;11.60;;;10.50;;
3726;SDS011;1879;45.876;12.300;2022-11-15T02:30:51;11.47;;;10.33;;
3726;SDS011;1879;45.876;12.300;2022-11-15T02:33:24;11.20;;;10.10;;
3726;SDS011;1879;45.876;12.300;2022-11-15T02:35:57;13.63;;;11.00;;
3726;SDS011;1879;45.876;12.300;2022-11-15T02:38:27;13.87;;;11.10;;
3726;SDS011;1879;45.876;12.300;2022-11-15T02:40:56;11.73;;;10.67;;
3726;SDS011;1879;45.876;12.300;2022-11-15T02:43:33;11.57;;;10.47;;
3726;SDS011;1879;45.876;12.300;2022-11-15T02:46:20;11.87;;;10.67;;
3726;SDS011;1879;45.876;12.300;2022-11-15T02:49:09;11.47;;;10.37;;
3726;SDS011;1879;45.876;12.300;2022-11-15T02:51:37;12.10;;;11.00;;
3726;SDS011;1879;45.876;12.300;2022-11-15T02:54:04;12.67;;;11.33;;
3726;SDS011;1879;45.876;12.300;2022-11-15T02:56:32;12.60;;;11.40;;
3726;SDS011;1879;45.876;12.300;2022-11-15T02:59:09;11.70;;;10.60;;
3726;SDS011;1879;45.876;12.300;2022-11-15T03:01:45;12.80;;;11.50;;
3726;SDS011;1879;45.876;12.300;2022-11-15T03:04:21;11.80;;;10.80;;
3726;SDS011;1879;45.876;12.300;2022-11-15T03:06:52;10.77;;;9.67;;
3726;SDS011;1879;45.876;12.300;2022-11-15T03:09:23;12.80;;;11.57;;
3726;SDS011;1879;45.876;12.300;2022-11-15T03:11:56;11.83;;;10.73;;
3726;SDS011;1879;45.876;12.300;2022-11-15T03:14:25;13.43;;;12.13;;
3726;SDS011;1879;45.876;12.300;2022-11-15T03:16:58;12.00;;;10.80;;
3726;SDS011;1879;45.876;12.300;2022-11-15T03:19:27;12.03;;;9.87;;
3726;SDS011;1879;45.876;12.300;2022-11-15T03:21:56;10.80;;;9.43;;
3726;SDS011;1879;45.876;12.300;2022-11-15T03:24:24;10.27;;;9.30;;
3726;SDS011;1879;45.876;12.300;2022-11-15T03:26:53;11.63;;;10.33;;
3726;SDS011;1879;45.876;12.300;2022-11-15T03:29:22;11.30;;;9.87;;
3726;SDS011;1879;45.876;12.300;2022-11-15T03:31:53;10.40;;;9.30;;
3726;SDS011;1879;45.876;12.300;2022-11-15T03:34:25;10.37;;;9.40;;
3726;SDS011;1879;45.876;12.300;2022-11-15T03:36:53;9.20;;;8.30;;
3726;SDS011;1879;45.876;12.300;2022-11-15T03:39:20;10.90;;;9.80;;
3726;SDS011;1879;45.876;12.300;2022-11-15T03:41:49;10.53;;;9.43;;
3726;SDS011;1879;45.876;12.300;2022-11-15T03:44:20;11.23;;;10.23;;
3726;SDS011;1879;45.876;12.300;2022-11-15T03:46:51;10.30;;;9.20;;
3726;SDS011;1879;45.876;12.300;2022-11-15T03:49:25;11.17;;;10.07;;
3726;SDS011;1879;45.876;12.300;2022-11-15T03:51:56;10.20;;;9.20;;
3726;SDS011;1879;45.876;12.300;2022-11-15T03:54:23;10.30;;;9.37;;
3726;SDS011;1879;45.876;12.300;2022-11-15T03:56:51;11.60;;;10.50;;
3726;SDS011;1879;45.876;12.300;2022-11-15T03:59:18;11.73;;;10.63;;
3726;SDS011;1879;45.876;12.300;2022-11-15T04:01:45;13.53;;;11.90;;
3726;SDS011;1879;45.876;12.300;2022-11-15T04:04:12;15.73;;;13.10;;
3726;SDS011;1879;45.876;12.300;2022-11-15T04:06:41;15.20;;;13.60;;
3726;SDS011;1879;45.876;12.300;2022-11-15T04:09:08;14.50;;;13.10;;
3726;SDS011;1879;45.876;12.300;2022-11-15T04:11:35;14.03;;;12.40;;
3726;SDS011;1879;45.876;12.300;2022-11-15T04:14:03;12.33;;;11.17;;
3726;SDS011;1879;45.876;12.300;2022-11-15T04:16:32;13.23;;;11.77;;
3726;SDS011;1879;45.876;12.300;2022-11-15T04:18:59;11.90;;;10.67;;
3726;SDS011;1879;45.876;12.300;2022-11-15T04:22:00;11.93;;;10.40;;
3726;SDS011;1879;45.876;12.300;2022-11-15T04:24:45;15.50;;;11.27;;
3726;SDS011;1879;45.876;12.300;2022-11-15T04:27:12;12.07;;;10.97;;
3726;SDS011;1879;45.876;12.300;2022-11-15T04:29:39;11.67;;;10.50;;
3726;SDS011;1879;45.876;12.300;2022-11-15T04:32:07;12.57;;;11.03;;
3726;SDS011;1879;45.876;12.300;2022-11-15T04:34:34;13.90;;;12.33;;
3726;SDS011;1879;45.876;12.300;2022-11-15T04:37:04;13.53;;;12.17;;
3726;SDS011;1879;45.876;12.300;2022-11-15T04:39:38;14.83;;;13.43;;
3726;SDS011;1879;45.876;12.300;2022-11-15T04:42:05;13.23;;;11.97;;
3726;SDS011;1879;45.876;12.300;2022-11-15T04:44:32;13.87;;;12.00;;
3726;SDS011;1879;45.876;12.300;2022-11-15T04:47:00;12.63;;;11.43;;
3726;SDS011;1879;45.876;12.300;2022-11-15T04:49:27;12.07;;;10.83;;
3726;SDS011;1879;45.876;12.300;2022-11-15T04:51:54;12.63;;;11.40;;
3726;SDS011;1879;45.876;12.300;2022-11-15T04:54:23;12.90;;;11.70;;
3726;SDS011;1879;45.876;12.300;2022-11-15T04:56:50;13.40;;;12.17;;
3726;SDS011;1879;45.876;12.300;2022-11-15T04:59:17;12.03;;;10.63;;
3726;SDS011;1879;45.876;12.300;2022-11-15T05:01:44;13.13;;;11.60;;
3726;SDS011;1879;45.876;12.300;2022-11-15T05:04:12;12.13;;;11.03;;
3726;SDS011;1879;45.876;12.300;2022-11-15T05:06:44;12.20;;;10.90;;
3726;SDS011;1879;45.876;12.300;2022-11-15T05:09:12;12.07;;;10.77;;
3726;SDS011;1879;45.876;12.300;2022-11-15T05:11:41;13.40;;;10.90;;
3726;SDS011;1879;45.876;12.300;2022-11-15T05:14:09;11.00;;;9.97;;
3726;SDS011;1879;45.876;12.300;2022-11-15T05:16:36;12.10;;;10.90;;
3726;SDS011;1879;45.876;12.300;2022-11-15T05:19:03;12.73;;;10.90;;
3726;SDS011;1879;45.876;12.300;2022-11-15T05:21:31;11.73;;;10.53;;
3726;SDS011;1879;45.876;12.300;2022-11-15T05:23:58;11.23;;;10.13;;
3726;SDS011;1879;45.876;12.300;2022-11-15T05:26:25;12.00;;;10.80;;
3726;SDS011;1879;45.876;12.300;2022-11-15T05:28:54;11.63;;;10.43;;
3726;SDS011;1879;45.876;12.300;2022-11-15T05:31:22;12.93;;;11.50;;
3726;SDS011;1879;45.876;12.300;2022-11-15T05:33:49;14.03;;;12.53;;
3726;SDS011;1879;45.876;12.300;2022-11-15T05:36:18;12.47;;;11.27;;
3726;SDS011;1879;45.876;12.300;2022-11-15T05:38:47;13.30;;;11.43;;
3726;SDS011;1879;45.876;12.300;2022-11-15T05:41:15;13.47;;;11.03;;
3726;SDS011;1879;45.876;12.300;2022-11-15T05:43:42;11.30;;;10.17;;
3726;SDS011;1879;45.876;12.300;2022-11-15T05:46:11;11.20;;;10.20;;
3726;SDS011;1879;45.876;12.300;2022-11-15T05:48:40;12.50;;;11.20;;
3726;SDS011;1879;45.876;12.300;2022-11-15T05:51:08;12.63;;;11.33;;
3726;SDS011;1879;45.876;12.300;2022-11-15T05:53:35;12.80;;;11.50;;
3726;SDS011;1879;45.876;12.300;2022-11-15T05:56:03;11.87;;;10.77;;
3726;SDS011;1879;45.876;12.300;2022-11-15T05:58:31;13.73;;;12.27;;
3726;SDS011;1879;45.876;12.300;2022-11-15T06:00:59;17.23;;;11.13;;
3726;SDS011;1879;45.876;12.300;2022-11-15T06:03:28;14.40;;;11.80;;
3726;SDS011;1879;45.876;12.300;2022-11-15T06:05:56;14.30;;;12.90;;
3726;SDS011;1879;45.876;12.300;2022-11-15T06:08:23;14.63;;;13.20;;
3726;SDS011;1879;45.876;12.300;2022-11-15T06:10:50;13.40;;;12.13;;
3726;SDS011;1879;45.876;12.300;2022-11-15T06:13:18;12.60;;;11.40;;
3726;SDS011;1879;45.876;12.300;2022-11-15T06:15:45;13.77;;;12.43;;
3726;SDS011;1879;45.876;12.300;2022-11-15T06:18:12;13.43;;;12.03;;
3726;SDS011;1879;45.876;12.300;2022-11-15T06:20:41;14.47;;;12.03;;
3726;SDS011;1879;45.876;12.300;2022-11-15T06:23:08;13.70;;;12.40;;
3726;SDS011;1879;45.876;12.300;2022-11-15T06:25:35;14.90;;;12.70;;
3726;SDS011;1879;45.876;12.300;2022-11-15T06:28:03;12.80;;;11.53;;
3726;SDS011;1879;45.876;12.300;2022-11-15T06:30:30;13.43;;;12.07;;
3726;SDS011;1879;45.876;12.300;2022-11-15T06:33:01;13.50;;;12.20;;
3726;SDS011;1879;45.876;12.300;2022-11-15T06:35:29;13.87;;;11.53;;
3726;SDS011;1879;45.876;12.300;2022-11-15T06:38:02;15.93;;;12.60;;
3726;SDS011;1879;45.876;12.300;2022-11-15T06:40:29;13.37;;;11.97;;
3726;SDS011;1879;45.876;12.300;2022-11-15T06:42:57;14.20;;;11.20;;
3726;SDS011;1879;45.876;12.300;2022-11-15T06:45:25;28.90;;;26.10;;
3726;SDS011;1879;45.876;12.300;2022-11-15T06:47:52;32.73;;;29.33;;
3726;SDS011;1879;45.876;12.300;2022-11-15T06:50:19;29.47;;;26.73;;
3726;SDS011;1879;45.876;12.300;2022-11-15T06:52:47;26.67;;;24.37;;
3726;SDS011;1879;45.876;12.300;2022-11-15T06:55:15;25.53;;;23.13;;
3726;SDS011;1879;45.876;12.300;2022-11-15T06:57:46;20.13;;;18.17;;
3726;SDS011;1879;45.876;12.300;2022-11-15T07:00:14;16.93;;;14.03;;
3726;SDS011;1879;45.876;12.300;2022-11-15T07:02:42;16.13;;;13.93;;
3726;SDS011;1879;45.876;12.300;2022-11-15T07:05:09;17.00;;;15.30;;
3726;SDS011;1879;45.876;12.300;2022-11-15T07:07:36;16.60;;;15.07;;
3726;SDS011;1879;45.876;12.300;2022-11-15T07:10:04;16.90;;;15.27;;
3726;SDS011;1879;45.876;12.300;2022-11-15T07:12:33;16.77;;;15.07;;
3726;SDS011;1879;45.876;12.300;2022-11-15T07:15:00;15.60;;;13.83;;
3726;SDS011;1879;45.876;12.300;2022-11-15T07:17:28;18.70;;;16.90;;
3726;SDS011;1879;45.876;12.300;2022-11-15T07:19:55;19.07;;;16.47;;
3726;SDS011;1879;45.876;12.300;2022-11-15T07:22:22;18.03;;;16.20;;
3726;SDS011;1879;45.876;12.300;2022-11-15T07:24:49;17.77;;;15.87;;
3726;SDS011;1879;45.876;12.300;2022-11-15T07:27:16;18.57;;;16.73;;
3726;SDS011;1879;45.876;12.300;2022-11-15T07:29:45;22.90;;;17.67;;
3726;SDS011;1879;45.876;12.300;2022-11-15T07:32:12;18.07;;;15.87;;
3726;SDS011;1879;45.876;12.300;2022-11-15T07:34:40;21.77;;;15.10;;
3726;SDS011;1879;45.876;12.300;2022-11-15T07:37:07;18.67;;;15.87;;
3726;SDS011;1879;45.876;12.300;2022-11-15T07:39:34;14.90;;;13.40;;
3726;SDS011;1879;45.876;12.300;2022-11-15T07:42:01;15.67;;;14.00;;
3726;SDS011;1879;45.876;12.300;2022-11-15T07:44:48;14.60;;;12.60;;
3726;SDS011;1879;45.876;12.300;2022-11-15T07:47:15;13.97;;;12.57;;
3726;SDS011;1879;45.876;12.300;2022-11-15T07:49:42;15.20;;;12.13;;
3726;SDS011;1879;45.876;12.300;2022-11-15T07:52:11;14.70;;;12.70;;
3726;SDS011;1879;45.876;12.300;2022-11-15T07:54:38;15.73;;;13.97;;
3726;SDS011;1879;45.876;12.300;2022-11-15T07:57:05;16.03;;;14.00;;
3726;SDS011;1879;45.876;12.300;2022-11-15T07:59:34;17.70;;;14.43;;
3726;SDS011;1879;45.876;12.300;2022-11-15T08:02:02;18.97;;;16.07;;
3726;SDS011;1879;45.876;12.300;2022-11-15T08:04:30;18.20;;;14.93;;
3726;SDS011;1879;45.876;12.300;2022-11-15T08:06:58;17.43;;;15.23;;
3726;SDS011;1879;45.876;12.300;2022-11-15T08:09:25;15.87;;;14.17;;
3726;SDS011;1879;45.876;12.300;2022-11-15T08:11:52;16.90;;;14.90;;
3726;SDS011;1879;45.876;12.300;2022-11-15T08:14:19;15.30;;;13.60;;
3726;SDS011;1879;45.876;12.300;2022-11-15T08:16:47;14.73;;;13.17;;
3726;SDS011;1879;45.876;12.300;2022-11-15T08:19:16;14.37;;;12.87;;
3726;SDS011;1879;45.876;12.300;2022-11-15T08:21:43;18.47;;;12.57;;
3726;SDS011;1879;45.876;12.300;2022-11-15T08:24:10;13.23;;;12.00;;
3726;SDS011;1879;45.876;12.300;2022-11-15T08:26:38;13.83;;;10.50;;
3726;SDS011;1879;45.876;12.300;2022-11-15T08:29:05;14.63;;;11.30;;
3726;SDS011;1879;45.876;12.300;2022-11-15T08:31:33;12.57;;;11.37;;
3726;SDS011;1879;45.876;12.300;2022-11-15T08:34:01;11.53;;;10.43;;
3726;SDS011;1879;45.876;12.300;2022-11-15T08:36:30;11.90;;;10.37;;
3726;SDS011;1879;45.876;12.300;2022-11-15T08:38:57;11.00;;;9.90;;
3726;SDS011;1879;45.876;12.300;2022-11-15T08:41:25;11.60;;;10.50;;
3726;SDS011;1879;45.876;12.300;2022-11-15T08:43:53;11.90;;;10.00;;
3726;SDS011;1879;45.876;12.300;2022-11-15T08:46:21;11.50;;;10.27;;
3726;SDS011;1879;45.876;12.300;2022-11-15T08:48:48;9.00;;;8.10;;
3726;SDS011;1879;45.876;12.300;2022-11-15T08:51:16;10.57;;;8.70;;
3726;SDS011;1879;45.876;12.300;2022-11-15T08:53:44;8.60;;;7.70;;
3726;SDS011;1879;45.876;12.300;2022-11-15T08:56:13;9.13;;;8.23;;
3726;SDS011;1879;45.876;12.300;2022-11-15T08:58:40;9.30;;;8.40;;
3726;SDS011;1879;45.876;12.300;2022-11-15T09:01:14;9.40;;;8.50;;
3726;SDS011;1879;45.876;12.300;2022-11-15T09:03:42;9.57;;;8.57;;
3726;SDS011;1879;45.876;12.300;2022-11-15T09:06:10;9.13;;;8.10;;
3726;SDS011;1879;45.876;12.300;2022-11-15T09:08:37;8.73;;;7.93;;
3726;SDS011;1879;45.876;12.300;2022-11-15T09:11:07;9.27;;;8.37;;
3726;SDS011;1879;45.876;12.300;2022-11-15T09:13:35;9.33;;;8.37;;
3726;SDS011;1879;45.876;12.300;2022-11-15T09:16:03;9.60;;;8.70;;
3726;SDS011;1879;45.876;12.300;2022-11-15T09:18:31;9.47;;;8.57;;
3726;SDS011;1879;45.876;12.300;2022-11-15T09:20:58;8.33;;;7.53;;
3726;SDS011;1879;45.876;12.300;2022-11-15T09:23:27;10.33;;;9.27;;
3726;SDS011;1879;45.876;12.300;2022-11-15T09:25:58;9.57;;;7.10;;
3726;SDS011;1879;45.876;12.300;2022-11-15T09:28:27;9.80;;;8.53;;
3726;SDS011;1879;45.876;12.300;2022-11-15T09:30:55;8.83;;;8.03;;
3726;SDS011;1879;45.876;12.300;2022-11-15T09:33:23;8.90;;;8.10;;
3726;SDS011;1879;45.876;12.300;2022-11-15T09:35:51;7.90;;;7.10;;
3726;SDS011;1879;45.876;12.300;2022-11-15T09:38:18;8.33;;;7.53;;
3726;SDS011;1879;45.876;12.300;2022-11-15T09:40:46;9.27;;;8.30;;
3726;SDS011;1879;45.876;12.300;2022-11-15T09:43:28;9.30;;;7.87;;
3726;SDS011;1879;45.876;12.300;2022-11-15T09:46:01;9.20;;;8.40;;
3726;SDS011;1879;45.876;12.300;2022-11-15T09:48:42;11.50;;;8.43;;
3726;SDS011;1879;45.876;12.300;2022-11-15T09:51:14;8.07;;;7.37;;
3726;SDS011;1879;45.876;12.300;2022-11-15T09:53:46;8.70;;;7.90;;
3726;SDS011;1879;45.876;12.300;2022-11-15T09:56:16;9.47;;;7.70;;
3726;SDS011;1879;45.876;12.300;2022-11-15T09:58:48;8.70;;;7.40;;
3726;SDS011;1879;45.876;12.300;2022-11-15T10:01:19;9.00;;;8.10;;
3726;SDS011;1879;45.876;12.300;2022-11-15T10:03:50;8.20;;;7.40;;
3726;SDS011;1879;45.876;12.300;2022-11-15T10:06:19;9.13;;;8.23;;
3726;SDS011;1879;45.876;12.300;2022-11-15T10:08:54;8.73;;;7.93;;
3726;SDS011;1879;45.876;12.300;2022-11-15T10:11:22;8.93;;;8.00;;
3726;SDS011;1879;45.876;12.300;2022-11-15T10:13:55;9.03;;;8.23;;
3726;SDS011;1879;45.876;12.300;2022-11-15T10:16:30;8.90;;;8.10;;
3726;SDS011;1879;45.876;12.300;2022-11-15T10:19:04;8.57;;;7.77;;
3726;SDS011;1879;45.876;12.300;2022-11-15T10:21:37;8.83;;;7.97;;
3726;SDS011;1879;45.876;12.300;2022-11-15T10:24:10;8.00;;;7.27;;
3726;SDS011;1879;45.876;12.300;2022-11-15T10:26:37;9.60;;;8.00;;
3726;SDS011;1879;45.876;12.300;2022-11-15T10:29:06;8.97;;;7.40;;
3726;SDS011;1879;45.876;12.300;2022-11-15T10:31:34;8.90;;;7.97;;
3726;SDS011;1879;45.876;12.300;2022-11-15T10:34:10;8.40;;;7.60;;
3726;SDS011;1879;45.876;12.300;2022-11-15T10:36:38;8.80;;;8.00;;
3726;SDS011;1879;45.876;12.300;2022-11-15T10:39:11;9.00;;;8.07;;
3726;SDS011;1879;45.876;12.300;2022-11-15T10:41:41;7.40;;;6.70;;
3726;SDS011;1879;45.876;12.300;2022-11-15T10:44:18;7.47;;;6.77;;
3726;SDS011;1879;45.876;12.300;2022-11-15T10:46:47;7.50;;;6.80;;
3726;SDS011;1879;45.876;12.300;2022-11-15T10:49:16;7.97;;;7.23;;
3726;SDS011;1879;45.876;12.300;2022-11-15T10:51:45;8.13;;;7.43;;
3726;SDS011;1879;45.876;12.300;2022-11-15T10:54:14;8.73;;;7.87;;
3726;SDS011;1879;45.876;12.300;2022-11-15T10:56:44;10.10;;;9.20;;
3726;SDS011;1879;45.876;12.300;2022-11-15T10:59:15;8.97;;;8.17;;
3726;SDS011;1879;45.876;12.300;2022-11-15T11:01:48;9.83;;;8.87;;
3726;SDS011;1879;45.876;12.300;2022-11-15T11:04:15;8.20;;;7.40;;
3726;SDS011;1879;45.876;12.300;2022-11-15T11:06:47;8.43;;;7.33;;
3726;SDS011;1879;45.876;12.300;2022-11-15T11:09:21;9.40;;;8.60;;
3726;SDS011;1879;45.876;12.300;2022-11-15T11:11:50;9.73;;;8.80;;
3726;SDS011;1879;45.876;12.300;2022-11-15T11:14:19;10.37;;;8.10;;
3726;SDS011;1879;45.876;12.300;2022-11-15T11:16:50;9.63;;;8.47;;
3726;SDS011;1879;45.876;12.300;2022-11-15T11:19:33;9.20;;;8.40;;
3726;SDS011;1879;45.876;12.300;2022-11-15T11:22:11;9.57;;;8.60;;
3726;SDS011;1879;45.876;12.300;2022-11-15T11:24:44;7.90;;;7.20;;
3726;SDS011;1879;45.876;12.300;2022-11-15T11:27:29;8.60;;;7.90;;
3726;SDS011;1879;45.876;12.300;2022-11-15T11:30:08;8.30;;;7.60;;
3726;SDS011;1879;45.876;12.300;2022-11-15T11:35:42;8.00;;;7.30;;
3726;SDS011;1879;45.876;12.300;2022-11-15T11:38:24;8.33;;;7.53;;
3726;SDS011;1879;45.876;12.300;2022-11-15T11:41:16;9.10;;;8.30;;
3726;SDS011;1879;45.876;12.300;2022-11-15T11:43:53;9.60;;;8.70;;
3726;SDS011;1879;45.876;12.300;2022-11-15T11:46:43;8.20;;;7.60;;
3726;SDS011;1879;45.876;12.300;2022-11-15T11:49:18;9.70;;;8.90;;
3726;SDS011;1879;45.876;12.300;2022-11-15T11:51:53;9.47;;;8.57;;
3726;SDS011;1879;45.876;12.300;2022-11-15T11:54:23;10.07;;;9.17;;
3726;SDS011;1879;45.876;12.300;2022-11-15T11:56:58;9.87;;;9.03;;
3726;SDS011;1879;45.876;12.300;2022-11-15T11:59:31;10.37;;;9.40;;
3726;SDS011;1879;45.876;12.300;2022-11-15T12:02:09;11.47;;;10.40;;
3726;SDS011;1879;45.876;12.300;2022-11-15T12:04:43;12.00;;;10.90;;
3726;SDS011;1879;45.876;12.300;2022-11-15T12:07:17;12.33;;;11.23;;
3726;SDS011;1879;45.876;12.300;2022-11-15T12:09:51;11.70;;;10.60;;
3726;SDS011;1879;45.876;12.300;2022-11-15T12:12:25;10.47;;;9.47;;
3726;SDS011;1879;45.876;12.300;2022-11-15T12:14:59;10.20;;;9.30;;
3726;SDS011;1879;45.876;12.300;2022-11-15T12:17:29;10.80;;;9.80;;
3726;SDS011;1879;45.876;12.300;2022-11-15T12:19:58;11.93;;;10.80;;
3726;SDS011;1879;45.876;12.300;2022-11-15T12:22:33;11.00;;;10.10;;
3726;SDS011;1879;45.876;12.300;2022-11-15T12:25:06;10.83;;;9.83;;
3726;SDS011;1879;45.876;12.300;2022-11-15T12:27:41;12.47;;;11.37;;
3726;SDS011;1879;45.876;12.300;2022-11-15T12:30:14;12.10;;;11.00;;
3726;SDS011;1879;45.876;12.300;2022-11-15T12:32:48;11.87;;;10.77;;
3726;SDS011;1879;45.876;12.300;2022-11-15T12:35:21;11.70;;;10.50;;
3726;SDS011;1879;45.876;12.300;2022-11-15T12:37:54;12.90;;;11.80;;
3726;SDS011;1879;45.876;12.300;2022-11-15T12:40:29;12.77;;;11.60;;
3726;SDS011;1879;45.876;12.300;2022-11-15T12:46:10;13.57;;;12.33;;
3726;SDS011;1879;45.876;12.300;2022-11-15T12:48:49;12.53;;;11.37;;
3726;SDS011;1879;45.876;12.300;2022-11-15T12:51:23;14.27;;;12.93;;
3726;SDS011;1879;45.876;12.300;2022-11-15T12:57:38;14.10;;;12.70;;
3726;SDS011;1879;45.876;12.300;2022-11-15T13:06:07;15.53;;;14.07;;
3726;SDS011;1879;45.876;12.300;2022-11-15T13:08:56;14.57;;;13.10;;
3726;SDS011;1879;45.876;12.300;2022-11-15T13:20:00;12.90;;;11.60;;
3726;SDS011;1879;45.876;12.300;2022-11-15T13:22:43;12.53;;;11.33;;
3726;SDS011;1879;45.876;12.300;2022-11-15T13:25:18;13.23;;;12.00;;
3726;SDS011;1879;45.876;12.300;2022-11-15T13:28:09;12.40;;;11.20;;
3726;SDS011;1879;45.876;12.300;2022-11-15T13:30:49;13.90;;;12.57;;
3726;SDS011;1879;45.876;12.300;2022-11-15T13:33:19;13.47;;;12.13;;
3726;SDS011;1879;45.876;12.300;2022-11-15T13:35:49;13.67;;;12.37;;
3726;SDS011;1879;45.876;12.300;2022-11-15T13:38:19;14.83;;;13.47;;
3726;SDS011;1879;45.876;12.300;2022-11-15T13:40:52;14.47;;;13.17;;
3726;SDS011;1879;45.876;12.300;2022-11-15T13:43:25;15.47;;;13.90;;
3726;SDS011;1879;45.876;12.300;2022-11-15T13:46:06;17.43;;;15.83;;
3726;SDS011;1879;45.876;12.300;2022-11-15T13:48:36;16.27;;;14.77;;
3726;SDS011;1879;45.876;12.300;2022-11-15T13:51:04;18.37;;;16.67;;
3726;SDS011;1879;45.876;12.300;2022-11-15T13:53:35;19.10;;;16.90;;
3726;SDS011;1879;45.876;12.300;2022-11-15T13:56:06;19.00;;;17.07;;
3726;SDS011;1879;45.876;12.300;2022-11-15T13:58:33;25.17;;;20.00;;
3726;SDS011;1879;45.876;12.300;2022-11-15T14:01:05;25.00;;;22.30;;
3726;SDS011;1879;45.876;12.300;2022-11-15T14:03:41;27.93;;;25.07;;
3726;SDS011;1879;45.876;12.300;2022-11-15T14:06:16;31.00;;;25.13;;
3726;SDS011;1879;45.876;12.300;2022-11-15T14:08:57;30.80;;;27.43;;
3726;SDS011;1879;45.876;12.300;2022-11-15T14:11:31;27.10;;;24.20;;
3726;SDS011;1879;45.876;12.300;2022-11-15T14:14:01;27.97;;;24.60;;
3726;SDS011;1879;45.876;12.300;2022-11-15T14:16:40;26.90;;;24.37;;
3726;SDS011;1879;45.876;12.300;2022-11-15T14:19:10;29.07;;;24.77;;
3726;SDS011;1879;45.876;12.300;2022-11-15T14:24:41;27.77;;;24.93;;
3726;SDS011;1879;45.876;12.300;2022-11-15T14:27:19;27.10;;;24.17;;
3726;SDS011;1879;45.876;12.300;2022-11-15T14:29:48;29.20;;;24.57;;
3726;SDS011;1879;45.876;12.300;2022-11-15T14:32:17;27.60;;;24.00;;
3726;SDS011;1879;45.876;12.300;2022-11-15T14:34:46;25.87;;;23.23;;
3726;SDS011;1879;45.876;12.300;2022-11-15T14:37:19;26.23;;;23.53;;
3726;SDS011;1879;45.876;12.300;2022-11-15T14:39:48;29.07;;;25.33;;
3726;SDS011;1879;45.876;12.300;2022-11-15T14:42:16;28.50;;;25.27;;
3726;SDS011;1879;45.876;12.300;2022-11-15T14:44:43;30.37;;;27.40;;
3726;SDS011;1879;45.876;12.300;2022-11-15T14:47:11;29.60;;;26.60;;
3726;SDS011;1879;45.876;12.300;2022-11-15T14:49:39;29.57;;;26.50;;
3726;SDS011;1879;45.876;12.300;2022-11-15T14:52:16;32.90;;;27.90;;
3726;SDS011;1879;45.876;12.300;2022-11-15T14:54:50;31.03;;;26.30;;
3726;SDS011;1879;45.876;12.300;2022-11-15T14:57:17;28.33;;;25.63;;
3726;SDS011;1879;45.876;12.300;2022-11-15T14:59:44;29.03;;;26.00;;
3726;SDS011;1879;45.876;12.300;2022-11-15T15:02:14;30.13;;;26.30;;
3726;SDS011;1879;45.876;12.300;2022-11-15T15:04:45;32.97;;;29.43;;
3726;SDS011;1879;45.876;12.300;2022-11-15T15:07:13;27.60;;;24.80;;
3726;SDS011;1879;45.876;12.300;2022-11-15T15:09:40;30.03;;;27.03;;
3726;SDS011;1879;45.876;12.300;2022-11-15T15:12:18;32.57;;;29.23;;
3726;SDS011;1879;45.876;12.300;2022-11-15T15:14:47;34.73;;;31.07;;
3726;SDS011;1879;45.876;12.300;2022-11-15T15:17:15;30.40;;;27.23;;
3726;SDS011;1879;45.876;12.300;2022-11-15T15:19:42;33.10;;;29.60;;
3726;SDS011;1879;45.876;12.300;2022-11-15T15:22:13;31.17;;;27.87;;
3726;SDS011;1879;45.876;12.300;2022-11-15T15:24:41;38.50;;;30.07;;
3726;SDS011;1879;45.876;12.300;2022-11-15T15:27:08;30.73;;;27.80;;